createdAt,value
2023-02-11T00:00:52.043Z,1019.61
2023-02-11T00:01:51.810Z,1019.64
2023-02-11T00:02:52.725Z,1019.65
2023-02-11T00:03:51.705Z,1019.60
2023-02-11T00:04:51.700Z,1019.63
2023-02-11T00:05:52.108Z,1019.64
2023-02-11T00:06:51.699Z,1019.66
2023-02-11T00:07:52.662Z,1019.68
2023-02-11T00:08:51.707Z,1019.63
2023-02-11T00:09:51.710Z,1019.56
2023-02-11T00:10:51.915Z,1019.52
2023-02-11T00:11:52.646Z,1019.45
2023-02-11T00:12:51.632Z,1019.47
2023-02-11T00:13:51.615Z,1019.42
2023-02-11T00:14:51.598Z,1019.30
2023-02-11T00:15:51.824Z,1019.33
2023-02-11T00:16:51.655Z,1019.34
2023-02-11T00:17:51.569Z,1019.26
2023-02-11T00:18:51.567Z,1019.18
2023-02-11T00:19:51.538Z,1019.14
2023-02-11T00:20:52.610Z,1019.10
2023-02-11T00:21:52.552Z,1019.09
2023-02-11T00:22:51.546Z,1019.16
2023-02-11T00:23:51.502Z,1019.03
2023-02-11T00:24:52.019Z,1019.00
2023-02-11T00:25:51.839Z,1018.93
2023-02-11T00:26:52.500Z,1018.93
2023-02-11T00:27:51.468Z,1018.96
2023-02-11T00:28:52.471Z,1018.93
2023-02-11T00:29:51.464Z,1018.93
2023-02-11T00:30:51.471Z,1018.91
2023-02-11T00:31:51.552Z,1018.94
2023-02-11T00:32:51.385Z,1018.91
2023-02-11T00:33:51.434Z,1018.92
2023-02-11T00:34:51.375Z,1018.92
2023-02-11T00:35:51.727Z,1018.87
2023-02-11T00:36:51.343Z,1018.82
2023-02-11T00:37:51.397Z,1018.83
2023-02-11T00:38:52.332Z,1018.90
2023-02-11T00:39:51.338Z,1018.82
2023-02-11T00:40:51.316Z,1018.82
2023-02-11T00:41:51.318Z,1018.82
2023-02-11T00:42:51.290Z,1018.85
2023-02-11T00:43:51.286Z,1018.82
2023-02-11T00:44:51.339Z,1018.83
2023-02-11T00:45:51.586Z,1018.89
2023-02-11T00:46:51.269Z,1018.87
2023-02-11T00:47:51.251Z,1018.87
2023-02-11T00:48:51.272Z,1018.87
2023-02-11T00:49:51.259Z,1018.83
2023-02-11T00:50:51.228Z,1018.84
2023-02-11T00:51:51.177Z,1018.85
2023-02-11T00:52:51.188Z,1018.82
2023-02-11T00:53:51.187Z,1018.84
2023-02-11T00:54:51.146Z,1018.73
2023-02-11T00:55:51.452Z,1018.72
2023-02-11T00:56:52.174Z,1018.74
2023-02-11T00:57:52.150Z,1018.75
2023-02-11T00:58:51.120Z,1018.68
2023-02-11T00:59:51.132Z,1018.67
2023-02-11T01:00:52.083Z,1018.69
2023-02-11T01:01:52.025Z,1018.69
2023-02-11T01:02:51.084Z,1018.65
2023-02-11T01:03:51.076Z,1018.61
2023-02-11T01:04:51.141Z,1018.68
2023-02-11T01:05:51.398Z,1018.70
2023-02-11T01:06:51.030Z,1018.70
2023-02-11T01:07:52.035Z,1018.68
2023-02-11T01:08:51.020Z,1018.64
2023-02-11T01:09:50.992Z,1018.62
2023-02-11T01:10:51.016Z,1018.63
2023-02-11T01:11:52.021Z,1018.64
2023-02-11T01:12:50.969Z,1018.70
2023-02-11T01:13:51.005Z,1018.66
2023-02-11T01:14:51.024Z,1018.64
2023-02-11T01:15:52.330Z,1018.66
2023-02-11T01:16:50.955Z,1018.62
2023-02-11T01:17:50.996Z,1018.53
2023-02-11T01:18:50.898Z,1018.51
2023-02-11T01:19:50.924Z,1018.55
2023-02-11T01:20:50.927Z,1018.44
2023-02-11T01:21:51.901Z,1018.48
2023-02-11T01:22:50.875Z,1018.43
2023-02-11T01:23:50.892Z,1018.49
2023-02-11T01:24:50.855Z,1018.54
2023-02-11T01:25:51.263Z,1018.49
2023-02-11T01:26:50.815Z,1018.42
2023-02-11T01:27:50.812Z,1018.46
2023-02-11T01:28:50.818Z,1018.45
2023-02-11T01:29:50.820Z,1018.48
2023-02-11T01:30:51.811Z,1018.36
2023-02-11T01:31:50.866Z,1018.51
2023-02-11T01:32:50.749Z,1018.46
2023-02-11T01:33:50.759Z,1018.40
2023-02-11T01:34:50.745Z,1018.41
2023-02-11T01:35:51.161Z,1018.40
2023-02-11T01:36:50.719Z,1018.37
2023-02-11T01:37:50.685Z,1018.42
2023-02-11T01:38:51.679Z,1018.43
2023-02-11T01:39:50.692Z,1018.34
2023-02-11T01:40:50.693Z,1018.32
2023-02-11T01:41:50.675Z,1018.34
2023-02-11T01:42:51.657Z,1018.34
2023-02-11T01:43:50.627Z,1018.33
2023-02-11T01:44:50.621Z,1018.37
2023-02-11T01:45:50.976Z,1018.34
2023-02-11T01:46:50.711Z,1018.39
2023-02-11T01:47:50.639Z,1018.38
2023-02-11T01:48:50.668Z,1018.34
2023-02-11T01:49:51.583Z,1018.32
2023-02-11T01:50:50.594Z,1018.41
2023-02-11T01:51:51.536Z,1018.37
2023-02-11T01:52:51.595Z,1018.39
2023-02-11T01:53:50.527Z,1018.35
2023-02-11T01:54:51.527Z,1018.31
2023-02-11T01:55:50.949Z,1018.39
2023-02-11T01:56:51.498Z,1018.34
2023-02-11T01:57:50.484Z,1018.39
2023-02-11T01:58:50.493Z,1018.31
2023-02-11T01:59:50.515Z,1018.33
2023-02-11T02:00:50.446Z,1018.35
2023-02-11T02:01:50.539Z,1018.35
2023-02-11T02:02:51.423Z,1018.43
2023-02-11T02:03:50.442Z,1018.42
2023-02-11T02:04:50.428Z,1018.44
2023-02-11T02:05:50.947Z,1018.51
2023-02-11T02:06:50.384Z,1018.57
2023-02-11T02:07:50.375Z,1018.51
2023-02-11T02:08:50.403Z,1018.53
2023-02-11T02:09:50.360Z,1018.47
2023-02-11T02:10:50.366Z,1018.47
2023-02-11T02:11:51.326Z,1018.47
2023-02-11T02:12:51.357Z,1018.46
2023-02-11T02:13:51.317Z,1018.52
2023-02-11T02:14:50.287Z,1018.49
2023-02-11T02:15:51.621Z,1018.55
2023-02-11T02:16:51.262Z,1018.52
2023-02-11T02:17:50.300Z,1018.65
2023-02-11T02:18:50.313Z,1018.62
2023-02-11T02:19:50.232Z,1018.59
2023-02-11T02:20:50.231Z,1018.55
2023-02-11T02:21:50.232Z,1018.51
2023-02-11T02:22:50.187Z,1018.40
2023-02-11T02:23:50.217Z,1018.44
2023-02-11T02:24:50.196Z,1018.43
2023-02-11T02:25:50.551Z,1018.37
2023-02-11T02:26:50.164Z,1018.34
2023-02-11T02:27:50.163Z,1018.41
2023-02-11T02:28:50.134Z,1018.31
2023-02-11T02:29:51.114Z,1018.32
2023-02-11T02:30:50.187Z,1018.27
2023-02-11T02:31:50.161Z,1018.32
2023-02-11T02:32:50.084Z,1018.28
2023-02-11T02:33:50.107Z,1018.18
2023-02-11T02:34:50.071Z,1018.21
2023-02-11T02:35:50.325Z,1018.13
2023-02-11T02:36:50.072Z,1018.13
2023-02-11T02:37:50.098Z,1018.14
2023-02-11T02:38:50.042Z,1018.14
2023-02-11T02:39:57.622Z,1018.17
2023-02-11T02:40:49.999Z,1018.09
2023-02-11T02:41:51.010Z,1018.07
2023-02-11T02:42:50.006Z,1018.10
2023-02-11T02:43:49.972Z,1018.07
2023-02-11T02:44:49.990Z,1018.11
2023-02-11T02:45:50.286Z,1017.99
2023-02-11T02:46:50.042Z,1017.92
2023-02-11T02:47:49.946Z,1018.00
2023-02-11T02:48:49.921Z,1017.96
2023-02-11T02:49:49.947Z,1017.88
2023-02-11T02:50:49.902Z,1017.93
2023-02-11T02:51:49.884Z,1017.94
2023-02-11T02:52:49.878Z,1017.94
2023-02-11T02:53:49.954Z,1017.98
2023-02-11T02:54:49.848Z,1017.89
2023-02-11T02:55:50.214Z,1017.95
2023-02-11T02:56:49.844Z,1017.89
2023-02-11T02:57:49.809Z,1017.83
2023-02-11T02:58:50.855Z,1017.87
2023-02-11T02:59:49.847Z,1017.85
2023-02-11T03:00:50.801Z,1017.91
2023-02-11T03:01:50.448Z,1017.92
2023-02-11T03:02:49.779Z,1017.93
2023-02-11T03:03:49.865Z,1017.86
2023-02-11T03:04:50.781Z,1017.89
2023-02-11T03:05:50.183Z,1017.97
2023-02-11T03:06:50.759Z,1018.00
2023-02-11T03:07:49.724Z,1018.02
2023-02-11T03:08:49.723Z,1018.05
2023-02-11T03:09:49.715Z,1018.03
2023-02-11T03:10:49.695Z,1018.05
2023-02-11T03:11:49.682Z,1018.04
2023-02-11T03:12:50.709Z,1018.05
2023-02-11T03:13:50.645Z,1018.01
2023-02-11T03:14:49.666Z,1017.99
2023-02-11T03:15:50.164Z,1018.00
2023-02-11T03:16:49.616Z,1017.87
2023-02-11T03:17:49.616Z,1017.91
2023-02-11T03:18:50.632Z,1017.90
2023-02-11T03:19:49.602Z,1017.86
2023-02-11T03:20:49.624Z,1017.81
2023-02-11T03:21:49.561Z,1017.81
2023-02-11T03:22:49.569Z,1017.87
2023-02-11T03:23:49.539Z,1017.87
2023-02-11T03:24:50.547Z,1017.88
2023-02-11T03:25:49.850Z,1017.81
2023-02-11T03:26:49.606Z,1017.87
2023-02-11T03:27:50.502Z,1017.77
2023-02-11T03:28:49.538Z,1017.72
2023-02-11T03:29:49.507Z,1017.74
2023-02-11T03:30:49.495Z,1017.68
2023-02-11T03:31:49.489Z,1017.70
2023-02-11T03:32:49.502Z,1017.63
2023-02-11T03:33:49.436Z,1017.63
2023-02-11T03:34:49.488Z,1017.63
2023-02-11T03:35:49.804Z,1017.54
2023-02-11T03:36:49.397Z,1017.53
2023-02-11T03:37:49.407Z,1017.56
2023-02-11T03:38:49.427Z,1017.54
2023-02-11T03:39:49.388Z,1017.56
2023-02-11T03:40:49.362Z,1017.54
2023-02-11T03:41:49.363Z,1017.54
2023-02-11T03:42:49.340Z,1017.54
2023-02-11T03:43:49.332Z,1017.56
2023-02-11T03:44:50.388Z,1017.56
2023-02-11T03:45:49.761Z,1017.57
2023-02-11T03:46:49.305Z,1017.63
2023-02-11T03:47:50.289Z,1017.65
2023-02-11T03:48:49.280Z,1017.69
2023-02-11T03:49:50.272Z,1017.70
2023-02-11T03:50:49.297Z,1017.68
2023-02-11T03:51:49.240Z,1017.64
2023-02-11T03:52:49.233Z,1017.72
2023-02-11T03:53:49.217Z,1017.63
2023-02-11T03:54:49.212Z,1017.67
2023-02-11T03:55:49.593Z,1017.62
2023-02-11T03:56:49.259Z,1017.66
2023-02-11T03:57:50.206Z,1017.59
2023-02-11T03:58:49.181Z,1017.57
2023-02-11T03:59:50.152Z,1017.55
2023-02-11T04:00:49.161Z,1017.51
2023-02-11T04:01:50.173Z,1017.48
2023-02-11T04:02:49.149Z,1017.52
2023-02-11T04:03:49.105Z,1017.45
2023-02-11T04:04:50.090Z,1017.49
2023-02-11T04:05:49.446Z,1017.51
2023-02-11T04:06:49.120Z,1017.49
2023-02-11T04:07:49.082Z,1017.57
2023-02-11T04:08:50.063Z,1017.54
2023-02-11T04:09:50.034Z,1017.53
2023-02-11T04:10:49.034Z,1017.53
2023-02-11T04:11:49.034Z,1017.54
2023-02-11T04:12:50.457Z,1017.50
2023-02-11T04:13:49.054Z,1017.51
2023-02-11T04:14:48.992Z,1017.51
2023-02-11T04:15:49.300Z,1017.50
2023-02-11T04:16:49.470Z,1017.45
2023-02-11T04:17:48.983Z,1017.50
2023-02-11T04:18:48.960Z,1017.38
2023-02-11T04:19:48.978Z,1017.36
2023-02-11T04:20:48.934Z,1017.38
2023-02-11T04:21:48.968Z,1017.40
2023-02-11T04:22:49.408Z,1017.33
2023-02-11T04:23:49.901Z,1017.34
2023-02-11T04:24:48.907Z,1017.39
2023-02-11T04:25:49.290Z,1017.36
2023-02-11T04:26:48.875Z,1017.36
2023-02-11T04:27:48.934Z,1017.38
2023-02-11T04:28:48.851Z,1017.35
2023-02-11T04:29:48.861Z,1017.42
2023-02-11T04:30:48.900Z,1017.34
2023-02-11T04:31:49.850Z,1017.35
2023-02-11T04:32:48.852Z,1017.37
2023-02-11T04:33:49.795Z,1017.39
2023-02-11T04:34:48.785Z,1017.40
2023-02-11T04:35:49.292Z,1017.37
2023-02-11T04:36:48.771Z,1017.31
2023-02-11T04:37:49.401Z,1017.33
2023-02-11T04:38:48.740Z,1017.34
2023-02-11T04:39:48.732Z,1017.37
2023-02-11T04:40:48.717Z,1017.42
2023-02-11T04:41:49.724Z,1017.36
2023-02-11T04:42:49.682Z,1017.42
2023-02-11T04:43:48.677Z,1017.42
2023-02-11T04:44:48.686Z,1017.40
2023-02-11T04:45:49.140Z,1017.43
2023-02-11T04:46:48.640Z,1017.34
2023-02-11T04:47:48.691Z,1017.37
2023-02-11T04:48:49.612Z,1017.35
2023-02-11T04:49:49.672Z,1017.31
2023-02-11T04:50:48.612Z,1017.30
2023-02-11T04:51:49.825Z,1017.29
2023-02-11T04:52:48.617Z,1017.27
2023-02-11T04:53:48.586Z,1017.28
2023-02-11T04:54:48.592Z,1017.28
2023-02-11T04:55:48.857Z,1017.27
2023-02-11T04:56:49.566Z,1017.30
2023-02-11T04:57:48.548Z,1017.33
2023-02-11T04:58:49.569Z,1017.30
2023-02-11T04:59:48.517Z,1017.40
2023-02-11T05:00:48.518Z,1017.38
2023-02-11T05:01:48.509Z,1017.33
2023-02-11T05:02:48.497Z,1017.34
2023-02-11T05:03:48.485Z,1017.38
2023-02-11T05:04:48.507Z,1017.42
2023-02-11T05:05:49.722Z,1017.44
2023-02-11T05:06:48.462Z,1017.41
2023-02-11T05:07:48.478Z,1017.49
2023-02-11T05:08:48.472Z,1017.38
2023-02-11T05:09:49.402Z,1017.38
2023-02-11T05:10:48.410Z,1017.30
2023-02-11T05:11:48.408Z,1017.38
2023-02-11T05:12:48.368Z,1017.45
2023-02-11T05:13:48.404Z,1017.38
2023-02-11T05:14:48.411Z,1017.34
2023-02-11T05:15:48.664Z,1017.34
2023-02-11T05:16:48.453Z,1017.34
2023-02-11T05:17:48.363Z,1017.28
2023-02-11T05:18:50.860Z,1017.29
2023-02-11T05:19:48.322Z,1017.28
2023-02-11T05:20:48.347Z,1017.34
2023-02-11T05:22:01.822Z,1017.27
2023-02-11T05:22:49.290Z,1017.29
2023-02-11T05:23:48.301Z,1017.25
2023-02-11T05:24:48.314Z,1017.27
2023-02-11T05:25:49.503Z,1017.31
2023-02-11T05:26:49.229Z,1017.32
2023-02-11T05:27:48.222Z,1017.24
2023-02-11T05:28:48.204Z,1017.22
2023-02-11T05:29:48.185Z,1017.17
2023-02-11T05:30:48.284Z,1017.17
2023-02-11T05:31:48.172Z,1017.20
2023-02-11T05:32:48.175Z,1017.23
2023-02-11T05:33:48.193Z,1017.19
2023-02-11T05:34:48.143Z,1017.22
2023-02-11T05:35:48.333Z,1017.22
2023-02-11T05:36:48.131Z,1017.23
2023-02-11T05:37:48.096Z,1017.22
2023-02-11T05:38:49.112Z,1017.25
2023-02-11T05:39:48.085Z,1017.33
2023-02-11T05:40:48.114Z,1017.27
2023-02-11T05:41:49.042Z,1017.32
2023-02-11T05:42:48.047Z,1017.25
2023-02-11T05:43:48.042Z,1017.33
2023-02-11T05:44:50.550Z,1017.35
2023-02-11T05:45:48.136Z,1017.35
2023-02-11T05:46:49.024Z,1017.41
2023-02-11T05:47:48.980Z,1017.35
2023-02-11T05:48:47.990Z,1017.34
2023-02-11T05:49:48.005Z,1017.33
2023-02-11T05:50:47.974Z,1017.34
2023-02-11T05:51:48.010Z,1017.31
2023-02-11T05:52:48.954Z,1017.34
2023-02-11T05:53:47.958Z,1017.37
2023-02-11T05:54:47.916Z,1017.34
2023-02-11T05:55:48.005Z,1017.41
2023-02-11T05:56:47.984Z,1017.40
2023-02-11T05:57:47.908Z,1017.38
2023-02-11T05:58:47.878Z,1017.33
2023-02-11T05:59:47.899Z,1017.29
2023-02-11T06:00:47.871Z,1017.27
2023-02-11T06:01:47.855Z,1017.22
2023-02-11T06:02:47.930Z,1017.29
2023-02-11T06:03:47.998Z,1017.21
2023-02-11T06:04:47.866Z,1017.20
2023-02-11T06:05:48.972Z,1017.17
2023-02-11T06:06:47.836Z,1017.10
2023-02-11T06:07:47.786Z,1017.14
2023-02-11T06:08:47.777Z,1017.08
2023-02-11T06:09:47.780Z,1017.10
2023-02-11T06:10:47.771Z,1017.01
2023-02-11T06:11:47.767Z,1017.07
2023-02-11T06:12:47.728Z,1017.13
2023-02-11T06:13:47.717Z,1017.22
2023-02-11T06:14:47.739Z,1017.19
2023-02-11T06:15:47.861Z,1017.13
2023-02-11T06:16:47.706Z,1017.15
2023-02-11T06:17:47.705Z,1017.10
2023-02-11T06:18:48.688Z,1017.17
2023-02-11T06:19:47.642Z,1017.18
2023-02-11T06:20:47.642Z,1017.13
2023-02-11T06:21:48.663Z,1017.08
2023-02-11T06:22:47.650Z,1017.02
2023-02-11T06:23:48.608Z,1017.08
2023-02-11T06:25:00.873Z,1017.06
2023-02-11T06:25:48.961Z,1016.99
2023-02-11T06:26:47.587Z,1017.02
2023-02-11T06:27:48.636Z,1017.02
2023-02-11T06:28:47.591Z,1017.02
2023-02-11T06:29:48.589Z,1017.05
2023-02-11T06:30:47.619Z,1017.03
2023-02-11T06:31:48.643Z,1016.97
2023-02-11T06:32:48.650Z,1017.02
2023-02-11T06:33:47.504Z,1017.00
2023-02-11T06:34:47.564Z,1017.03
2023-02-11T06:35:47.492Z,1017.07
2023-02-11T06:36:47.513Z,1017.06
2023-02-11T06:37:47.528Z,1017.05
2023-02-11T06:38:47.467Z,1017.09
2023-02-11T06:39:47.439Z,1017.12
2023-02-11T06:40:47.425Z,1017.15
2023-02-11T06:41:48.422Z,1017.09
2023-02-11T06:42:47.406Z,1017.10
2023-02-11T06:43:47.458Z,1017.11
2023-02-11T06:44:48.387Z,1017.12
2023-02-11T06:45:47.365Z,1017.06
2023-02-11T06:46:47.447Z,1017.08
2023-02-11T06:47:47.378Z,1017.11
2023-02-11T06:48:48.337Z,1017.13
2023-02-11T06:49:47.345Z,1017.15
2023-02-11T06:50:47.362Z,1017.17
2023-02-11T06:51:47.316Z,1017.21
2023-02-11T06:52:47.304Z,1017.24
2023-02-11T06:53:47.317Z,1017.34
2023-02-11T06:54:48.281Z,1017.27
2023-02-11T06:55:47.344Z,1017.29
2023-02-11T06:56:48.262Z,1017.34
2023-02-11T06:57:47.252Z,1017.32
2023-02-11T06:58:47.243Z,1017.36
2023-02-11T06:59:47.251Z,1017.34
2023-02-11T07:00:47.222Z,1017.34
2023-02-11T07:01:47.386Z,1017.33
2023-02-11T07:02:47.241Z,1017.27
2023-02-11T07:03:48.197Z,1017.39
2023-02-11T07:04:48.174Z,1017.31
2023-02-11T07:05:47.163Z,1017.30
2023-02-11T07:06:47.153Z,1017.23
2023-02-11T07:07:47.224Z,1017.20
2023-02-11T07:08:48.132Z,1017.25
2023-02-11T07:09:47.145Z,1017.17
2023-02-11T07:10:47.130Z,1017.21
2023-02-11T07:11:47.097Z,1017.20
2023-02-11T07:12:47.134Z,1017.20
2023-02-11T07:13:47.078Z,1017.15
2023-02-11T07:14:48.085Z,1017.24
2023-02-11T07:15:47.093Z,1017.22
2023-02-11T07:16:48.042Z,1017.27
2023-02-11T07:17:47.028Z,1017.25
2023-02-11T07:18:48.060Z,1017.25
2023-02-11T07:19:47.050Z,1017.24
2023-02-11T07:20:47.016Z,1017.24
2023-02-11T07:21:47.981Z,1017.29
2023-02-11T07:22:46.990Z,1017.29
2023-02-11T07:23:46.972Z,1017.32
2023-02-11T07:24:46.974Z,1017.34
2023-02-11T07:25:46.975Z,1017.33
2023-02-11T07:26:46.938Z,1017.30
2023-02-11T07:27:46.935Z,1017.26
2023-02-11T07:28:46.930Z,1017.34
2023-02-11T07:29:47.934Z,1017.34
2023-02-11T07:30:46.919Z,1017.41
2023-02-11T07:31:47.012Z,1017.28
2023-02-11T07:32:46.895Z,1017.32
2023-02-11T07:33:47.865Z,1017.34
2023-02-11T07:34:46.911Z,1017.40
2023-02-11T07:35:46.894Z,1017.36
2023-02-11T07:36:46.827Z,1017.32
2023-02-11T07:37:46.817Z,1017.34
2023-02-11T07:38:46.811Z,1017.37
2023-02-11T07:39:46.792Z,1017.39
2023-02-11T07:40:46.780Z,1017.30
2023-02-11T07:41:47.850Z,1017.32
2023-02-11T07:42:46.748Z,1017.28
2023-02-11T07:43:46.753Z,1017.27
2023-02-11T07:44:50.021Z,1017.27
2023-02-11T07:45:46.725Z,1017.22
2023-02-11T07:46:46.779Z,1017.24
2023-02-11T07:47:46.704Z,1017.18
2023-02-11T07:48:46.683Z,1017.31
2023-02-11T07:49:46.682Z,1017.21
2023-02-11T07:50:46.688Z,1017.32
2023-02-11T07:51:46.679Z,1017.31
2023-02-11T07:52:46.679Z,1017.31
2023-02-11T07:53:46.706Z,1017.20
2023-02-11T07:54:46.631Z,1017.23
2023-02-11T07:55:46.617Z,1017.16
2023-02-11T07:56:46.683Z,1017.22
2023-02-11T07:57:46.601Z,1017.27
2023-02-11T07:58:46.600Z,1017.25
2023-02-11T07:59:47.577Z,1017.26
2023-02-11T08:00:46.594Z,1017.29
2023-02-11T08:01:47.608Z,1017.33
2023-02-11T08:02:47.581Z,1017.20
2023-02-11T08:03:46.548Z,1017.26
2023-02-11T08:04:46.508Z,1017.30
2023-02-11T08:05:46.518Z,1017.30
2023-02-11T08:06:46.515Z,1017.23
2023-02-11T08:07:47.504Z,1017.24
2023-02-11T08:08:46.507Z,1017.18
2023-02-11T08:09:46.486Z,1017.21
2023-02-11T08:10:46.437Z,1017.15
2023-02-11T08:11:46.428Z,1017.11
2023-02-11T08:12:46.430Z,1017.15
2023-02-11T08:13:46.512Z,1017.09
2023-02-11T08:14:46.428Z,1017.08
2023-02-11T08:15:46.420Z,1017.13
2023-02-11T08:16:46.424Z,1017.15
2023-02-11T08:17:46.388Z,1017.17
2023-02-11T08:18:46.386Z,1017.21
2023-02-11T08:19:46.357Z,1017.21
2023-02-11T08:20:46.377Z,1017.20
2023-02-11T08:21:46.327Z,1017.26
2023-02-11T08:22:47.333Z,1017.23
2023-02-11T08:23:47.392Z,1017.21
2023-02-11T08:24:47.323Z,1017.22
2023-02-11T08:25:46.327Z,1017.19
2023-02-11T08:26:46.303Z,1017.21
2023-02-11T08:27:46.304Z,1017.21
2023-02-11T08:28:47.251Z,1017.18
2023-02-11T08:29:46.276Z,1017.18
2023-02-11T08:30:46.231Z,1017.22
2023-02-11T08:31:53.911Z,1017.28
2023-02-11T08:32:46.226Z,1017.19
2023-02-11T08:33:46.205Z,1017.19
2023-02-11T08:34:46.236Z,1017.19
2023-02-11T08:35:46.221Z,1017.13
2023-02-11T08:36:46.146Z,1017.11
2023-02-11T08:37:46.164Z,1017.13
2023-02-11T08:38:46.138Z,1017.20
2023-02-11T08:39:46.126Z,1017.26
2023-02-11T08:40:47.142Z,1017.26
2023-02-11T08:41:47.144Z,1017.22
2023-02-11T08:42:46.109Z,1017.23
2023-02-11T08:43:46.089Z,1017.17
2023-02-11T08:44:46.064Z,1017.21
2023-02-11T08:45:46.148Z,1017.17
2023-02-11T08:46:46.081Z,1017.16
2023-02-11T08:47:46.058Z,1017.20
2023-02-11T08:48:46.065Z,1017.20
2023-02-11T08:49:47.061Z,1017.28
2023-02-11T08:50:45.991Z,1017.29
2023-02-11T08:51:46.010Z,1017.33
2023-02-11T08:52:46.978Z,1017.36
2023-02-11T08:53:45.993Z,1017.29
2023-02-11T08:54:45.999Z,1017.38
2023-02-11T08:55:45.957Z,1017.41
2023-02-11T08:56:46.930Z,1017.39
2023-02-11T08:57:45.950Z,1017.25
2023-02-11T08:58:45.924Z,1017.26
2023-02-11T08:59:45.928Z,1017.27
2023-02-11T09:00:45.904Z,1017.27
2023-02-11T09:01:45.949Z,1017.32
2023-02-11T09:02:45.877Z,1017.35
2023-02-11T09:03:45.874Z,1017.40
2023-02-11T09:04:45.877Z,1017.39
2023-02-11T09:05:45.827Z,1017.34
2023-02-11T09:06:45.823Z,1017.30
2023-02-11T09:07:45.801Z,1017.33
2023-02-11T09:08:46.460Z,1017.33
2023-02-11T09:09:45.826Z,1017.34
2023-02-11T09:10:45.789Z,1017.31
2023-02-11T09:11:45.800Z,1017.26
2023-02-11T09:12:45.780Z,1017.40
2023-02-11T09:13:45.751Z,1017.39
2023-02-11T09:14:45.821Z,1017.49
2023-02-11T09:15:45.729Z,1017.41
2023-02-11T09:16:46.821Z,1017.49
2023-02-11T09:17:45.724Z,1017.52
2023-02-11T09:18:45.703Z,1017.50
2023-02-11T09:19:45.678Z,1017.56
2023-02-11T09:20:45.686Z,1017.62
2023-02-11T09:21:45.671Z,1017.66
2023-02-11T09:22:46.665Z,1017.65
2023-02-11T09:23:45.644Z,1017.64
2023-02-11T09:24:45.663Z,1017.60
2023-02-11T09:25:45.620Z,1017.58
2023-02-11T09:26:45.594Z,1017.62
2023-02-11T09:27:45.592Z,1017.73
2023-02-11T09:28:45.596Z,1017.65
2023-02-11T09:29:46.608Z,1017.65
2023-02-11T09:30:46.675Z,1017.74
2023-02-11T09:31:46.667Z,1017.64
2023-02-11T09:32:46.574Z,1017.66
2023-02-11T09:33:45.565Z,1017.59
2023-02-11T09:34:45.537Z,1017.56
2023-02-11T09:35:45.510Z,1017.53
2023-02-11T09:36:46.491Z,1017.64
2023-02-11T09:37:45.492Z,1017.62
2023-02-11T09:38:45.486Z,1017.63
2023-02-11T09:39:45.487Z,1017.59
2023-02-11T09:40:45.448Z,1017.55
2023-02-11T09:41:45.454Z,1017.61
2023-02-11T09:42:45.424Z,1017.62
2023-02-11T09:43:45.423Z,1017.61
2023-02-11T09:44:45.402Z,1017.56
2023-02-11T09:45:45.478Z,1017.60
2023-02-11T09:46:45.425Z,1017.75
2023-02-11T09:47:45.400Z,1017.62
2023-02-11T09:48:45.353Z,1017.65
2023-02-11T09:49:45.377Z,1017.61
2023-02-11T09:50:45.358Z,1017.65
2023-02-11T09:51:45.321Z,1017.66
2023-02-11T09:52:45.360Z,1017.72
2023-02-11T09:53:45.322Z,1017.72
2023-02-11T09:54:45.330Z,1017.73
2023-02-11T09:55:46.286Z,1017.75
2023-02-11T09:56:45.280Z,1017.73
2023-02-11T09:57:45.319Z,1017.74
2023-02-11T09:58:45.294Z,1017.65
2023-02-11T09:59:45.280Z,1017.67
2023-02-11T10:00:45.258Z,1017.72
2023-02-11T10:01:45.293Z,1017.64
2023-02-11T10:02:45.258Z,1017.68
2023-02-11T10:03:46.221Z,1017.63
2023-02-11T10:04:45.214Z,1017.59
2023-02-11T10:05:45.195Z,1017.51
2023-02-11T10:06:45.169Z,1017.54
2023-02-11T10:07:45.184Z,1017.50
2023-02-11T10:08:45.256Z,1017.42
2023-02-11T10:09:45.165Z,1017.53
2023-02-11T10:10:45.182Z,1017.45
2023-02-11T10:11:45.145Z,1017.41
2023-02-11T10:12:45.107Z,1017.38
2023-02-11T10:13:45.123Z,1017.33
2023-02-11T10:14:45.108Z,1017.30
2023-02-11T10:15:45.155Z,1017.35
2023-02-11T10:16:45.064Z,1017.32
2023-02-11T10:17:45.076Z,1017.38
2023-02-11T10:18:46.035Z,1017.44
2023-02-11T10:19:45.033Z,1017.39
2023-02-11T10:20:46.062Z,1017.42
2023-02-11T10:21:45.079Z,1017.48
2023-02-11T10:22:45.005Z,1017.49
2023-02-11T10:23:44.987Z,1017.50
2023-02-11T10:24:44.967Z,1017.47
2023-02-11T10:25:45.490Z,1017.44
2023-02-11T10:26:45.000Z,1017.38
2023-02-11T10:27:44.946Z,1017.45
2023-02-11T10:28:45.155Z,1017.46
2023-02-11T10:29:44.925Z,1017.44
2023-02-11T10:30:45.025Z,1017.42
2023-02-11T10:31:45.048Z,1017.39
2023-02-11T10:32:44.908Z,1017.36
2023-02-11T10:33:44.894Z,1017.34
2023-02-11T10:34:44.889Z,1017.41
2023-02-11T10:35:44.859Z,1017.43
2023-02-11T10:36:44.853Z,1017.46
2023-02-11T10:37:44.862Z,1017.49
2023-02-11T10:38:44.864Z,1017.53
2023-02-11T10:39:44.826Z,1017.52
2023-02-11T10:40:44.831Z,1017.63
2023-02-11T10:41:44.791Z,1017.56
2023-02-11T10:42:44.776Z,1017.60
2023-02-11T10:43:44.766Z,1017.61
2023-02-11T10:44:44.781Z,1017.61
2023-02-11T10:45:44.779Z,1017.55
2023-02-11T10:46:44.769Z,1017.55
2023-02-11T10:47:44.723Z,1017.66
2023-02-11T10:48:44.718Z,1017.58
2023-02-11T10:49:44.728Z,1017.66
2023-02-11T10:50:45.709Z,1017.67
2023-02-11T10:51:44.685Z,1017.68
2023-02-11T10:52:44.688Z,1017.65
2023-02-11T10:53:44.670Z,1017.62
2023-02-11T10:54:44.649Z,1017.65
2023-02-11T10:55:44.680Z,1017.61
2023-02-11T10:56:44.639Z,1017.63
2023-02-11T10:57:45.626Z,1017.51
2023-02-11T10:58:44.624Z,1017.47
2023-02-11T10:59:44.588Z,1017.46
2023-02-11T11:00:44.628Z,1017.37
2023-02-11T11:01:44.603Z,1017.32
2023-02-11T11:02:44.600Z,1017.26
2023-02-11T11:03:44.573Z,1017.24
2023-02-11T11:04:44.561Z,1017.18
2023-02-11T11:05:45.581Z,1017.23
2023-02-11T11:06:44.515Z,1017.21
2023-02-11T11:07:44.526Z,1017.18
2023-02-11T11:08:45.484Z,1017.23
2023-02-11T11:09:44.523Z,1017.22
2023-02-11T11:10:44.510Z,1017.36
2023-02-11T11:11:44.476Z,1017.36
2023-02-11T11:12:44.488Z,1017.53
2023-02-11T11:13:44.444Z,1017.56
2023-02-11T11:14:44.455Z,1017.58
2023-02-11T11:15:44.450Z,1017.53
2023-02-11T11:16:45.402Z,1017.52
2023-02-11T11:17:44.420Z,1017.44
2023-02-11T11:18:44.424Z,1017.35
2023-02-11T11:19:44.381Z,1017.38
2023-02-11T11:20:44.379Z,1017.37
2023-02-11T11:21:44.376Z,1017.26
2023-02-11T11:22:45.358Z,1017.27
2023-02-11T11:23:45.364Z,1017.28
2023-02-11T11:24:45.314Z,1017.28
2023-02-11T11:25:45.316Z,1017.25
2023-02-11T11:26:44.297Z,1017.23
2023-02-11T11:27:44.306Z,1017.29
2023-02-11T11:28:44.310Z,1017.32
2023-02-11T11:29:45.290Z,1017.24
2023-02-11T11:30:45.346Z,1017.16
2023-02-11T11:31:44.329Z,1017.20
2023-02-11T11:32:44.232Z,1017.17
2023-02-11T11:33:44.268Z,1017.19
2023-02-11T11:34:45.217Z,1017.21
2023-02-11T11:35:44.188Z,1017.20
2023-02-11T11:36:44.210Z,1017.26
2023-02-11T11:37:44.175Z,1017.29
2023-02-11T11:38:44.170Z,1017.30
2023-02-11T11:39:44.193Z,1017.27
2023-02-11T11:40:44.180Z,1017.35
2023-02-11T11:41:44.172Z,1017.40
2023-02-11T11:42:44.141Z,1017.33
2023-02-11T11:43:45.145Z,1017.32
2023-02-11T11:44:44.109Z,1017.42
2023-02-11T11:45:51.701Z,1017.30
2023-02-11T11:46:44.258Z,1017.32
2023-02-11T11:47:44.093Z,1017.44
2023-02-11T11:48:44.077Z,1017.47
2023-02-11T11:49:44.044Z,1017.50
2023-02-11T11:50:44.045Z,1017.46
2023-02-11T11:51:44.074Z,1017.58
2023-02-11T11:52:43.999Z,1017.54
2023-02-11T11:53:43.998Z,1017.62
2023-02-11T11:54:43.974Z,1017.56
2023-02-11T11:55:43.999Z,1017.55
2023-02-11T11:56:44.005Z,1017.50
2023-02-11T11:57:43.961Z,1017.49
2023-02-11T11:58:43.935Z,1017.48
2023-02-11T11:59:43.950Z,1017.47
2023-02-11T12:00:43.917Z,1017.45
2023-02-11T12:01:44.967Z,1017.48
2023-02-11T12:02:44.023Z,1017.42
2023-02-11T12:03:43.897Z,1017.44
2023-02-11T12:04:43.873Z,1017.42
2023-02-11T12:05:43.876Z,1017.42